createdAt,value
2023-04-27T00:00:47.223Z,198.37
2023-04-27T00:03:15.978Z,201.13
2023-04-27T00:05:44.166Z,208.50
2023-04-27T00:08:12.001Z,214.07
2023-04-27T00:10:39.804Z,210.90
2023-04-27T00:13:07.587Z,199.23
2023-04-27T00:15:36.713Z,195.30
2023-04-27T00:18:04.805Z,209.77
2023-04-27T00:20:33.802Z,196.50
2023-04-27T00:23:01.461Z,204.07
2023-04-27T00:25:29.413Z,187.10
2023-04-27T00:27:57.004Z,191.90
2023-04-27T00:30:26.108Z,202.20
2023-04-27T00:32:56.124Z,190.83
2023-04-27T00:35:24.404Z,183.87
2023-04-27T00:37:54.194Z,204.70
2023-04-27T00:40:22.190Z,190.83
2023-04-27T00:42:49.887Z,198.83
2023-04-27T00:45:17.589Z,190.47
2023-04-27T00:47:45.839Z,200.57
2023-04-27T00:50:15.592Z,187.87
2023-04-27T00:52:43.779Z,191.93
2023-04-27T00:55:11.678Z,195.00
2023-04-27T00:57:41.289Z,185.33
2023-04-27T01:00:11.855Z,189.60
2023-04-27T01:02:40.864Z,189.03
2023-04-27T01:05:09.365Z,198.60
2023-04-27T01:07:40.134Z,196.97
2023-04-27T01:10:08.972Z,192.40
2023-04-27T01:12:36.968Z,180.17
2023-04-27T01:15:07.858Z,196.23
2023-04-27T01:17:35.744Z,186.47
2023-04-27T01:20:07.571Z,191.77
2023-04-27T01:22:36.147Z,193.47
2023-04-27T01:25:06.319Z,193.20
2023-04-27T01:27:33.952Z,196.30
2023-04-27T01:30:01.593Z,187.67
2023-04-27T01:32:29.422Z,190.80
2023-04-27T01:34:57.104Z,213.53
2023-04-27T01:37:27.683Z,194.43
2023-04-27T01:39:55.326Z,192.17
2023-04-27T01:42:24.301Z,203.83
2023-04-27T01:44:51.952Z,189.40
2023-04-27T01:47:19.553Z,181.93
2023-04-27T01:49:47.171Z,185.50
2023-04-27T01:52:14.803Z,180.60
2023-04-27T01:54:42.438Z,172.97
2023-04-27T01:57:10.955Z,176.93
2023-04-27T01:59:39.906Z,169.33
2023-04-27T02:02:07.972Z,174.37
2023-04-27T02:04:37.827Z,154.57
2023-04-27T02:07:05.616Z,164.93
2023-04-27T02:09:33.359Z,160.43
2023-04-27T02:12:02.593Z,164.47
2023-04-27T02:14:30.404Z,149.03
2023-04-27T02:16:59.412Z,151.97
2023-04-27T02:19:27.063Z,152.30
2023-04-27T02:21:54.756Z,142.00
2023-04-27T02:24:22.952Z,136.63
2023-04-27T02:26:50.585Z,143.93
2023-04-27T02:29:19.486Z,141.00
2023-04-27T02:31:47.700Z,129.20
2023-04-27T02:34:16.930Z,142.60
2023-04-27T02:36:44.591Z,130.17
2023-04-27T02:39:12.643Z,135.53
2023-04-27T02:41:40.614Z,139.30
2023-04-27T02:44:09.128Z,133.93
2023-04-27T02:46:36.826Z,145.50
2023-04-27T02:49:04.440Z,141.57
2023-04-27T02:51:33.396Z,136.13
2023-04-27T02:54:01.192Z,143.70
2023-04-27T02:56:29.227Z,127.40
2023-04-27T02:58:57.267Z,133.13
2023-04-27T03:01:25.248Z,144.17
2023-04-27T03:03:53.189Z,143.50
2023-04-27T03:06:20.847Z,134.93
2023-04-27T03:08:49.834Z,137.53
2023-04-27T03:11:17.541Z,132.33
2023-04-27T03:13:45.202Z,141.50
2023-04-27T03:16:13.025Z,138.20
2023-04-27T03:18:41.192Z,140.67
2023-04-27T03:21:10.640Z,146.50
2023-04-27T03:23:38.623Z,143.90
2023-04-27T03:26:12.075Z,148.07
2023-04-27T03:28:39.996Z,151.83
2023-04-27T03:31:08.575Z,148.23
2023-04-27T03:33:37.394Z,151.40
2023-04-27T03:36:06.695Z,157.97
2023-04-27T03:38:35.499Z,151.50
2023-04-27T03:41:03.135Z,150.37
2023-04-27T03:43:32.457Z,167.67
2023-04-27T03:46:00.310Z,155.83
2023-04-27T03:48:27.991Z,173.17
2023-04-27T03:50:56.551Z,173.43
2023-04-27T03:53:24.221Z,171.03
2023-04-27T03:55:52.433Z,144.83
2023-04-27T03:58:20.399Z,169.23
2023-04-27T04:01:14.704Z,155.17
2023-04-27T04:03:43.390Z,151.53
2023-04-27T04:06:12.679Z,153.77
2023-04-27T04:08:40.534Z,145.07
2023-04-27T04:11:08.159Z,163.43
2023-04-27T04:13:37.075Z,158.23
2023-04-27T04:16:05.853Z,155.53
2023-04-27T04:18:36.042Z,160.83
2023-04-27T04:21:04.212Z,165.50
2023-04-27T04:23:32.862Z,158.40
2023-04-27T04:26:02.084Z,160.23
2023-04-27T04:28:33.830Z,156.03
2023-04-27T04:31:02.736Z,167.80
2023-04-27T04:33:31.147Z,179.40
2023-04-27T04:36:00.384Z,156.30
2023-04-27T04:38:28.421Z,168.80
2023-04-27T04:40:56.088Z,169.80
2023-04-27T04:43:23.833Z,181.53
2023-04-27T04:45:51.612Z,167.87
2023-04-27T04:48:20.287Z,168.57
2023-04-27T04:50:48.104Z,149.43
2023-04-27T04:53:17.086Z,163.20
2023-04-27T04:55:44.825Z,168.43
2023-04-27T04:58:12.435Z,162.70
2023-04-27T05:00:40.046Z,160.87
2023-04-27T05:03:08.048Z,177.30
2023-04-27T05:05:35.827Z,173.40
2023-04-27T05:08:03.518Z,174.30
2023-04-27T05:10:32.547Z,177.40
2023-04-27T05:13:00.161Z,187.40
2023-04-27T05:15:27.800Z,165.47
2023-04-27T05:17:55.430Z,181.80
2023-04-27T05:20:23.498Z,178.40
2023-04-27T05:22:51.407Z,174.67
2023-04-27T05:25:19.304Z,193.70
2023-04-27T05:27:48.264Z,187.70
2023-04-27T05:30:16.025Z,197.27
2023-04-27T05:32:43.642Z,204.07
2023-04-27T05:35:11.337Z,192.03
2023-04-27T05:37:39.033Z,187.87
2023-04-27T05:40:09.632Z,193.17
2023-04-27T05:42:37.349Z,205.60
2023-04-27T05:45:07.828Z,211.73
2023-04-27T05:47:35.573Z,211.97
2023-04-27T05:50:03.693Z,205.37
2023-04-27T05:52:31.661Z,208.97
2023-04-27T05:54:59.721Z,201.93
2023-04-27T05:57:28.022Z,218.10
2023-04-27T05:59:56.188Z,208.53
2023-04-27T06:02:25.301Z,228.53
2023-04-27T06:04:53.102Z,230.43
2023-04-27T06:07:21.335Z,234.87
2023-04-27T06:09:48.952Z,219.53
2023-04-27T06:12:16.664Z,239.17
2023-04-27T06:14:44.242Z,246.97
2023-04-27T06:17:11.929Z,223.83
2023-04-27T06:19:40.973Z,243.10
2023-04-27T06:22:08.555Z,232.30
2023-04-27T06:24:36.715Z,241.87
2023-04-27T06:27:04.533Z,229.83
2023-04-27T06:29:32.204Z,244.00
2023-04-27T06:32:00.083Z,235.53
2023-04-27T06:34:27.966Z,240.13
2023-04-27T06:36:56.925Z,241.47
2023-04-27T06:39:24.524Z,239.63
2023-04-27T06:41:52.158Z,234.07
2023-04-27T06:44:19.911Z,249.00
2023-04-27T06:46:47.547Z,252.53
2023-04-27T06:49:15.442Z,226.90
2023-04-27T06:51:43.463Z,248.63
2023-04-27T06:54:12.503Z,228.93
2023-04-27T06:56:40.178Z,247.57
2023-04-27T06:59:08.601Z,241.13
2023-04-27T07:01:36.537Z,248.13
2023-04-27T07:04:04.622Z,264.85
2023-04-27T07:06:32.638Z,257.55
2023-04-27T07:09:00.643Z,271.02
2023-04-27T07:11:29.577Z,274.10
2023-04-27T07:13:57.219Z,268.58
2023-04-27T07:16:24.938Z,261.65
2023-04-27T07:18:52.636Z,258.60
2023-04-27T07:21:20.526Z,265.20
2023-04-27T07:23:48.123Z,296.60
2023-04-27T07:26:15.893Z,274.02
2023-04-27T07:28:44.905Z,262.25
2023-04-27T07:31:12.973Z,268.80
2023-04-27T07:33:40.855Z,258.38
2023-04-27T07:36:08.829Z,250.57
2023-04-27T07:38:38.348Z,256.33
2023-04-27T07:41:07.272Z,255.90
2023-04-27T07:43:35.112Z,237.60
2023-04-27T07:46:04.435Z,237.00
2023-04-27T07:48:32.613Z,250.35
2023-04-27T07:51:00.199Z,247.65
2023-04-27T07:53:27.811Z,257.27
2023-04-27T07:55:55.447Z,251.27
2023-04-27T07:58:23.213Z,238.45
2023-04-27T08:00:50.855Z,235.32
2023-04-27T08:03:19.965Z,235.43
2023-04-27T08:05:47.821Z,240.80
2023-04-27T08:08:15.993Z,247.73
2023-04-27T08:10:43.845Z,230.63
2023-04-27T08:13:12.081Z,227.63
2023-04-27T08:15:39.849Z,229.13
2023-04-27T08:18:07.548Z,233.32
2023-04-27T08:20:36.556Z,244.48
2023-04-27T08:23:04.209Z,231.30
2023-04-27T08:25:31.873Z,211.45
2023-04-27T08:27:59.440Z,217.20
2023-04-27T08:30:27.065Z,224.82
2023-04-27T08:32:54.960Z,199.23
2023-04-27T08:35:22.716Z,194.25
2023-04-27T08:37:51.768Z,198.85
2023-04-27T08:40:20.850Z,197.10
2023-04-27T08:42:56.210Z,196.98
2023-04-27T08:45:24.385Z,212.98
2023-04-27T08:47:52.809Z,203.32
2023-04-27T08:50:21.268Z,193.60
2023-04-27T08:52:52.086Z,168.25
2023-04-27T08:55:20.170Z,155.68
2023-04-27T08:57:58.320Z,155.57
2023-04-27T09:00:27.012Z,159.40
2023-04-27T09:02:55.042Z,151.90
2023-04-27T09:05:23.972Z,166.43
2023-04-27T09:08:00.713Z,152.25
2023-04-27T09:10:29.930Z,146.05
2023-04-27T09:12:59.116Z,154.57
2023-04-27T09:15:26.823Z,148.70
2023-04-27T09:17:56.227Z,154.13
2023-04-27T09:20:26.821Z,163.77
2023-04-27T09:22:55.964Z,157.48
2023-04-27T09:25:26.665Z,153.45
2023-04-27T09:27:54.613Z,152.63
2023-04-27T09:30:22.540Z,165.00
2023-04-27T09:32:54.430Z,150.98
2023-04-27T09:35:24.163Z,158.65
2023-04-27T09:37:53.769Z,159.65
2023-04-27T09:40:26.479Z,157.55
2023-04-27T09:42:57.179Z,159.25
2023-04-27T09:45:25.514Z,158.55
2023-04-27T09:47:53.801Z,157.77
2023-04-27T09:50:22.516Z,170.00
2023-04-27T09:52:50.410Z,144.65
2023-04-27T09:55:22.157Z,164.00
2023-04-27T09:57:59.925Z,169.38
2023-04-27T10:00:43.409Z,148.15
2023-04-27T10:03:23.163Z,164.43
2023-04-27T10:06:26.537Z,182.10
2023-04-27T10:08:54.244Z,148.90
2023-04-27T10:11:23.052Z,152.18
2023-04-27T10:13:56.281Z,160.27
2023-04-27T10:16:24.046Z,164.95
2023-04-27T10:18:54.005Z,159.60
2023-04-27T10:21:22.053Z,157.57
2023-04-27T10:23:51.250Z,164.48
2023-04-27T10:26:26.048Z,157.45
2023-04-27T10:29:07.501Z,142.90
2023-04-27T10:31:35.809Z,135.45
2023-04-27T10:34:08.466Z,131.95
2023-04-27T10:36:37.951Z,132.43
2023-04-27T10:39:16.127Z,122.32
2023-04-27T10:41:52.093Z,121.05
2023-04-27T10:44:27.094Z,124.88
2023-04-27T10:46:55.986Z,116.47
2023-04-27T10:49:24.163Z,124.30
2023-04-27T10:51:52.455Z,113.30
2023-04-27T10:54:20.283Z,108.15
2023-04-27T10:56:48.219Z,106.55
2023-04-27T10:59:16.266Z,95.78
2023-04-27T11:01:50.027Z,88.25
2023-04-27T11:04:18.541Z,94.85
2023-04-27T11:06:47.112Z,100.25
2023-04-27T11:09:15.705Z,95.88
2023-04-27T11:11:46.809Z,92.57
2023-04-27T11:14:21.616Z,98.82
2023-04-27T11:16:51.086Z,97.78
2023-04-27T11:19:18.719Z,102.45
2023-04-27T11:21:46.523Z,100.65
2023-04-27T11:24:15.553Z,106.40
2023-04-27T11:26:43.345Z,97.82
2023-04-27T11:29:13.860Z,103.22
2023-04-27T11:31:47.378Z,108.68
2023-04-27T11:34:19.722Z,99.93
2023-04-27T11:37:07.113Z,98.38
2023-04-27T11:39:42.965Z,100.93
2023-04-27T11:42:19.051Z,100.28
2023-04-27T11:44:53.151Z,97.13
2023-04-27T11:47:22.384Z,98.00
2023-04-27T11:49:52.845Z,104.82
2023-04-27T11:52:20.725Z,93.13
2023-04-27T11:54:49.612Z,113.15
2023-04-27T11:57:17.446Z,107.53
2023-04-27T11:59:45.118Z,105.22
2023-04-27T12:02:12.783Z,109.63
2023-04-27T12:04:40.731Z,120.75
2023-04-27T12:07:10.214Z,126.80
2023-04-27T12:09:37.830Z,114.07
2023-04-27T12:12:06.371Z,118.72
2023-04-27T12:14:34.061Z,120.90
2023-04-27T12:17:02.007Z,117.22
2023-04-27T12:19:30.471Z,104.32
2023-04-27T12:21:58.513Z,112.15
2023-04-27T12:24:27.739Z,112.55
2023-04-27T12:26:55.483Z,111.43
2023-04-27T12:29:24.415Z,113.65
2023-04-27T12:31:52.256Z,115.53
2023-04-27T12:34:20.113Z,124.70
2023-04-27T12:36:47.952Z,121.10
2023-04-27T12:39:17.129Z,127.45
2023-04-27T12:41:47.132Z,111.05
2023-04-27T12:44:16.539Z,117.88
2023-04-27T12:46:45.107Z,128.05
2023-04-27T12:49:13.393Z,135.35
2023-04-27T12:51:41.317Z,135.27
2023-04-27T12:54:10.052Z,126.70
2023-04-27T12:56:37.762Z,125.00
2023-04-27T12:59:06.816Z,132.02
2023-04-27T13:01:34.920Z,120.22
2023-04-27T13:04:05.530Z,129.45
2023-04-27T13:06:33.565Z,125.32
2023-04-27T13:09:01.305Z,138.02
2023-04-27T13:11:29.031Z,123.88
2023-04-27T13:13:56.641Z,137.95
2023-04-27T13:16:26.413Z,133.38
2023-04-27T13:18:55.467Z,123.00
2023-04-27T13:21:23.367Z,123.97
2023-04-27T13:23:53.592Z,127.53
2023-04-27T13:26:22.376Z,127.53
2023-04-27T13:28:50.136Z,136.32
2023-04-27T13:31:17.889Z,122.65
2023-04-27T13:33:47.005Z,135.02
2023-04-27T13:36:14.698Z,129.05
2023-04-27T13:38:42.707Z,124.60
2023-04-27T13:41:10.335Z,141.43
2023-04-27T13:43:37.966Z,137.65
2023-04-27T13:46:05.800Z,131.45
2023-04-27T13:48:33.481Z,134.30
2023-04-27T13:51:02.466Z,134.02
2023-04-27T13:53:30.213Z,137.38
2023-04-27T13:55:58.914Z,136.77
2023-04-27T13:58:28.480Z,135.75
2023-04-27T14:00:56.456Z,141.07
2023-04-27T14:03:24.531Z,130.43
2023-04-27T14:05:52.192Z,129.68
2023-04-27T14:08:21.687Z,139.65
2023-04-27T14:10:49.893Z,132.48
2023-04-27T14:13:19.754Z,145.77
2023-04-27T14:15:47.415Z,138.45
2023-04-27T14:18:15.552Z,131.38
2023-04-27T14:20:45.341Z,129.57
2023-04-27T14:23:13.184Z,136.95
2023-04-27T14:25:42.161Z,138.43
2023-04-27T14:28:12.254Z,129.68
2023-04-27T14:30:40.002Z,118.35
2023-04-27T14:33:07.840Z,119.68
2023-04-27T14:35:37.008Z,130.77
2023-04-27T14:38:05.585Z,126.20
2023-04-27T14:40:33.914Z,125.30
2023-04-27T14:43:02.931Z,126.82
2023-04-27T14:45:36.976Z,128.07
2023-04-27T14:48:11.629Z,116.90
2023-04-27T14:50:39.479Z,120.10
2023-04-27T14:53:07.068Z,114.45
2023-04-27T14:55:34.956Z,125.40
2023-04-27T14:58:04.023Z,120.95
2023-04-27T15:00:31.663Z,114.93
2023-04-27T15:02:59.308Z,118.75
2023-04-27T15:05:26.966Z,129.65
2023-04-27T15:07:54.563Z,128.63
2023-04-27T15:10:22.478Z,133.82
2023-04-27T15:12:50.082Z,127.72
2023-04-27T15:15:19.370Z,138.65
2023-04-27T15:17:46.981Z,139.32
2023-04-27T15:20:15.019Z,138.63
2023-04-27T15:22:42.702Z,134.05
2023-04-27T15:25:11.217Z,144.90
2023-04-27T15:27:39.927Z,136.95
2023-04-27T15:30:08.836Z,129.13
2023-04-27T15:32:37.921Z,143.52
2023-04-27T15:35:06.723Z,136.65
2023-04-27T15:37:36.581Z,138.55
2023-04-27T15:40:07.362Z,129.20
2023-04-27T15:42:35.052Z,127.32
2023-04-27T15:45:02.832Z,134.77
2023-04-27T15:47:30.609Z,131.98
2023-04-27T15:49:59.540Z,130.65
2023-04-27T15:52:27.370Z,129.73
2023-04-27T15:54:55.768Z,123.68
2023-04-27T15:57:23.416Z,126.90
2023-04-27T15:59:51.013Z,125.75
2023-04-27T16:02:19.353Z,116.82
2023-04-27T16:04:47.081Z,123.97
2023-04-27T16:07:16.110Z,119.10
2023-04-27T16:09:43.793Z,126.53
2023-04-27T16:12:11.452Z,122.88
2023-04-27T16:14:39.205Z,122.28
2023-04-27T16:17:06.846Z,129.10
2023-04-27T16:19:34.466Z,123.75
2023-04-27T16:22:04.029Z,115.72
2023-04-27T16:24:33.025Z,117.85
2023-04-27T16:27:01.285Z,117.50
2023-04-27T16:29:29.376Z,123.13
2023-04-27T16:31:57.090Z,111.82
2023-04-27T16:34:24.892Z,119.40
2023-04-27T16:36:52.562Z,119.72
2023-04-27T16:39:20.326Z,105.72
2023-04-27T16:41:49.764Z,108.70
2023-04-27T16:44:17.513Z,101.68
2023-04-27T16:46:45.475Z,97.47
2023-04-27T16:49:13.876Z,106.68
2023-04-27T16:51:42.207Z,105.03
2023-04-27T16:54:10.492Z,107.82
2023-04-27T16:56:38.153Z,103.53
2023-04-27T16:59:07.627Z,97.18
2023-04-27T17:01:35.402Z,96.20
2023-04-27T17:04:03.409Z,90.68
2023-04-27T17:06:31.381Z,91.22
2023-04-27T17:08:59.492Z,100.68
2023-04-27T17:11:27.392Z,100.85
2023-04-27T17:13:55.421Z,104.05
2023-04-27T17:16:25.014Z,110.72
2023-04-27T17:18:52.984Z,117.63
2023-04-27T17:21:22.614Z,127.10
2023-04-27T17:23:52.008Z,125.97
2023-04-27T17:26:21.440Z,131.98
2023-04-27T17:28:50.474Z,160.32
2023-04-27T17:31:18.192Z,143.43
2023-04-27T17:33:47.360Z,160.35
2023-04-27T17:36:15.143Z,164.30
2023-04-27T17:38:42.866Z,167.60
2023-04-27T17:41:10.995Z,176.15
2023-04-27T17:43:38.731Z,168.77
2023-04-27T17:46:08.027Z,190.50
2023-04-27T17:48:36.202Z,173.45
2023-04-27T17:51:05.471Z,182.25
2023-04-27T17:53:33.149Z,195.05
2023-04-27T17:56:00.956Z,183.30
2023-04-27T17:58:28.780Z,187.27
2023-04-27T18:00:56.405Z,182.68
2023-04-27T18:03:24.405Z,192.68
2023-04-27T18:05:52.606Z,197.75
2023-04-27T18:08:21.541Z,213.30
2023-04-27T18:10:49.218Z,209.93
2023-04-27T18:13:17.250Z,218.70
2023-04-27T18:15:44.910Z,242.90
2023-04-27T18:18:16.748Z,242.68
2023-04-27T18:20:44.899Z,268.85
2023-04-27T18:23:12.594Z,262.05
2023-04-27T18:25:41.595Z,274.08
2023-04-27T18:28:09.957Z,268.88
2023-04-27T18:30:37.644Z,271.17
2023-04-27T18:33:05.517Z,286.40
2023-04-27T18:35:33.265Z,268.73
2023-04-27T18:38:00.859Z,265.60
2023-04-27T18:40:28.590Z,283.42
2023-04-27T18:42:57.632Z,267.25
2023-04-27T18:45:25.396Z,312.73
2023-04-27T18:47:53.026Z,287.02
2023-04-27T18:50:20.824Z,282.85
2023-04-27T18:52:48.476Z,279.77
2023-04-27T18:55:16.797Z,300.10
2023-04-27T18:57:44.518Z,274.55
2023-04-27T19:00:14.949Z,289.50
2023-04-27T19:02:42.615Z,291.15
2023-04-27T19:05:13.478Z,277.02
2023-04-27T19:07:41.405Z,282.58
2023-04-27T19:10:10.323Z,269.05
2023-04-27T19:12:38.387Z,287.92
2023-04-27T19:15:06.626Z,290.58
2023-04-27T19:17:35.776Z,276.95
2023-04-27T19:20:03.617Z,281.83
2023-04-27T19:22:34.098Z,293.75
2023-04-27T19:25:01.983Z,262.33
2023-04-27T19:27:29.986Z,257.45
2023-04-27T19:29:58.587Z,265.45
2023-04-27T19:32:27.693Z,235.98
2023-04-27T19:34:57.851Z,240.95
2023-04-27T19:37:26.035Z,240.32
2023-04-27T19:39:53.706Z,261.55
2023-04-27T19:42:21.347Z,250.82
2023-04-27T19:44:49.028Z,236.85
2023-04-27T19:47:16.805Z,239.77
2023-04-27T19:49:44.548Z,237.57
2023-04-27T19:52:13.910Z,241.80
2023-04-27T19:54:41.684Z,245.55
2023-04-27T19:57:09.362Z,230.40
2023-04-27T19:59:37.798Z,246.35
2023-04-27T20:02:05.471Z,250.80
2023-04-27T20:04:33.457Z,239.68
2023-04-27T20:07:03.254Z,242.75
2023-04-27T20:09:33.664Z,249.25
2023-04-27T20:12:01.467Z,232.18
2023-04-27T20:14:31.183Z,229.90
2023-04-27T20:16:58.824Z,248.82
2023-04-27T20:19:26.508Z,227.98
2023-04-27T20:21:54.414Z,227.20
2023-04-27T20:24:22.554Z,235.95
2023-04-27T20:26:51.535Z,232.48
2023-04-27T20:29:19.227Z,241.48
2023-04-27T20:31:48.411Z,233.20
2023-04-27T20:34:16.271Z,232.27
2023-04-27T20:36:44.388Z,258.80
2023-04-27T20:39:12.970Z,230.48
2023-04-27T20:41:41.875Z,220.32
2023-04-27T20:44:11.719Z,229.38
2023-04-27T20:46:39.452Z,228.70
2023-04-27T20:49:07.316Z,229.20
2023-04-27T20:51:35.021Z,231.80
2023-04-27T20:54:02.777Z,245.43
2023-04-27T20:56:31.376Z,220.07
2023-04-27T20:58:59.137Z,220.02
2023-04-27T21:01:28.255Z,227.25
2023-04-27T21:03:56.024Z,224.38
2023-04-27T21:06:23.731Z,248.85
2023-04-27T21:08:51.573Z,228.70
2023-04-27T21:11:20.477Z,232.77
2023-04-27T21:13:48.087Z,235.40
2023-04-27T21:16:15.852Z,221.43
2023-04-27T21:18:44.905Z,213.82
2023-04-27T21:21:12.524Z,219.35
2023-04-27T21:23:40.651Z,218.65
2023-04-27T21:26:08.885Z,219.88
2023-04-27T21:28:36.924Z,225.63
2023-04-27T21:31:04.550Z,209.32
2023-04-27T21:33:32.271Z,210.13
2023-04-27T21:36:03.625Z,204.32
2023-04-27T21:38:31.413Z,209.65
2023-04-27T21:40:59.792Z,203.55
2023-04-27T21:43:27.503Z,210.15
2023-04-27T21:45:55.335Z,206.25
2023-04-27T21:48:23.012Z,200.40
2023-04-27T21:50:51.291Z,200.15
2023-04-27T21:53:20.250Z,216.55
2023-04-27T21:55:49.338Z,212.73
2023-04-27T21:58:17.158Z,212.85
2023-04-27T22:00:44.844Z,210.73
2023-04-27T22:03:12.861Z,205.05
2023-04-27T22:05:40.627Z,217.80
2023-04-27T22:08:08.956Z,208.63
2023-04-27T22:10:38.037Z,202.48
2023-04-27T22:13:17.709Z,215.30
2023-04-27T22:15:46.463Z,201.43
2023-04-27T22:18:14.790Z,208.93
2023-04-27T22:20:42.929Z,210.52
2023-04-27T22:23:11.481Z,199.15
2023-04-27T22:25:42.722Z,197.65
2023-04-27T22:28:11.029Z,191.93
2023-04-27T22:30:39.848Z,201.50
2023-04-27T22:33:08.017Z,196.25
2023-04-27T22:35:36.885Z,193.05
2023-04-27T22:38:04.685Z,204.48
2023-04-27T22:40:32.338Z,196.88
2023-04-27T22:43:01.637Z,225.52
2023-04-27T22:45:29.287Z,213.80
2023-04-27T22:47:57.514Z,211.82
2023-04-27T22:50:25.215Z,201.35
2023-04-27T22:52:53.927Z,205.77
2023-04-27T22:55:22.199Z,210.23
2023-04-27T22:57:50.701Z,199.18
2023-04-27T23:00:19.830Z,196.32
2023-04-27T23:02:47.724Z,211.68
2023-04-27T23:05:16.523Z,208.98
2023-04-27T23:07:44.325Z,214.93
2023-04-27T23:10:12.905Z,207.02
2023-04-27T23:12:40.658Z,200.15
2023-04-27T23:15:09.386Z,197.15
2023-04-27T23:17:38.452Z,204.40
2023-04-27T23:20:24.057Z,205.60
2023-04-27T23:22:55.513Z,186.98
2023-04-27T23:25:23.214Z,197.15
2023-04-27T23:27:52.420Z,215.85
2023-04-27T23:30:21.247Z,207.60
2023-04-27T23:32:50.470Z,188.13
2023-04-27T23:35:18.185Z,210.68
2023-04-27T23:37:45.968Z,218.98
2023-04-27T23:40:14.115Z,226.27
2023-04-27T23:42:41.875Z,215.43
2023-04-27T23:45:10.027Z,221.48
2023-04-27T23:47:37.915Z,216.48
2023-04-27T23:50:07.925Z,232.30
2023-04-27T23:52:35.540Z,203.27
2023-04-27T23:55:03.146Z,220.88
2023-04-27T23:57:30.816Z,209.48
2023-04-27T23:59:58.414Z,230.88
